CSN115 EDDF-ENGM
Flight info
| Callsign | CSN115 |
|---|---|
| Flight time | 1h 34m |
| Altitude | 31000 |
| Route | MARUN2D/07C MARUN Y150 TOLGI DCT ALASA DCT INVOL DCT SABAK/N0455F380 L997 LUNIP LUNIP4M |
| Aircraft | B77W/H-SADE1E2E3GHIJ3J5M1P2RWXY/LB2D1 |
Departure
| Time | 2026-05-08 08:37 |
|---|---|
| Airport | Frankfurt Main Airport (EDDF) |
Arrival
| Time | 2026-05-08 10:12 |
|---|---|
| Airport | Oslo-Gardermoen International Airport (ENGM) |
| Time | Latitude | Longitude | Altitude | Speed | Heading |
|---|---|---|---|---|---|
| 2026-05-08 07:51 | 50.04545 | 8.56739 | 374 ft | 0 kts | 295° |
| 2026-05-08 08:22 | 50.04541 | 8.56752 | 375 ft | 2 kts | 295° |
| 2026-05-08 08:22 | 50.04536 | 8.56770 | 375 ft | 2 kts | 295° |
| 2026-05-08 08:23 | 50.04530 | 8.56787 | 375 ft | 2 kts | 295° |
| 2026-05-08 08:23 | 50.04524 | 8.56807 | 375 ft | 2 kts | 298° |
| 2026-05-08 08:23 | 50.04517 | 8.56829 | 376 ft | 2 kts | 296° |
| 2026-05-08 08:23 | 50.04511 | 8.56849 | 376 ft | 1 kts | 295° |
| 2026-05-08 08:24 | 50.04507 | 8.56861 | 376 ft | 1 kts | 268° |
| 2026-05-08 08:24 | 50.04511 | 8.56876 | 376 ft | 1 kts | 218° |
| 2026-05-08 08:24 | 50.04518 | 8.56881 | 376 ft | 1 kts | 192° |
| 2026-05-08 08:24 | 50.04521 | 8.56883 | 376 ft | 0 kts | 194° |
| 2026-05-08 08:26 | 50.04494 | 8.56862 | 375 ft | 10 kts | 217° |
| 2026-05-08 08:26 | 50.04429 | 8.56728 | 372 ft | 21 kts | 248° |
| 2026-05-08 08:26 | 50.04370 | 8.56473 | 369 ft | 29 kts | 250° |
| 2026-05-08 08:26 | 50.04293 | 8.56151 | 365 ft | 32 kts | 251° |
| 2026-05-08 08:27 | 50.04248 | 8.55969 | 362 ft | 3 kts | 249° |
| 2026-05-08 08:27 | 50.04246 | 8.55962 | 362 ft | 3 kts | 249° |
| 2026-05-08 08:27 | 50.04224 | 8.55871 | 361 ft | 15 kts | 251° |
| 2026-05-08 08:27 | 50.04175 | 8.55656 | 360 ft | 27 kts | 251° |
| 2026-05-08 08:28 | 50.04106 | 8.55373 | 360 ft | 23 kts | 252° |
| 2026-05-08 08:28 | 50.04062 | 8.55191 | 358 ft | 17 kts | 247° |
| 2026-05-08 08:28 | 50.04017 | 8.55007 | 353 ft | 19 kts | 252° |
| 2026-05-08 08:28 | 50.03967 | 8.54801 | 351 ft | 21 kts | 250° |
| 2026-05-08 08:29 | 50.03919 | 8.54568 | 347 ft | 23 kts | 243° |
| 2026-05-08 08:29 | 50.03855 | 8.54374 | 347 ft | 19 kts | 235° |
| 2026-05-08 08:29 | 50.03792 | 8.54197 | 348 ft | 17 kts | 253° |
| 2026-05-08 08:29 | 50.03751 | 8.54029 | 350 ft | 16 kts | 250° |
| 2026-05-08 08:30 | 50.03715 | 8.53865 | 353 ft | 15 kts | 250° |
| 2026-05-08 08:30 | 50.03676 | 8.53702 | 353 ft | 16 kts | 250° |
| 2026-05-08 08:30 | 50.03548 | 8.53380 | 349 ft | 18 kts | 206° |
| 2026-05-08 08:31 | 50.03505 | 8.53350 | 347 ft | 0 kts | 204° |
| 2026-05-08 08:33 | 50.03479 | 8.53332 | 346 ft | 5 kts | 205° |
| 2026-05-08 08:33 | 50.03430 | 8.53305 | 345 ft | 9 kts | 184° |
| 2026-05-08 08:34 | 50.03365 | 8.53329 | 343 ft | 10 kts | 153° |
| 2026-05-08 08:34 | 50.03353 | 8.53347 | 343 ft | 0 kts | 134° |
| 2026-05-08 08:35 | 50.03350 | 8.53351 | 343 ft | 2 kts | 131° |
| 2026-05-08 08:35 | 50.03328 | 8.53394 | 343 ft | 7 kts | 128° |
| 2026-05-08 08:35 | 50.03288 | 8.53487 | 341 ft | 10 kts | 112° |
| 2026-05-08 08:35 | 50.03291 | 8.53575 | 341 ft | 9 kts | 71° |
| 2026-05-08 08:36 | 50.03299 | 8.53620 | 341 ft | 0 kts | 72° |
| 2026-05-08 08:36 | 50.03301 | 8.53625 | 342 ft | 5 kts | 72° |
| 2026-05-08 08:36 | 50.03403 | 8.54071 | 341 ft | 84 kts | 68° |
| 2026-05-08 08:37 | 50.03692 | 8.55260 | 348 ft | 152 kts | 70° |
| 2026-05-08 08:37 | 50.04122 | 8.57083 | 402 ft | 202 kts | 69° |
| 2026-05-08 08:37 | 50.04573 | 8.59155 | 949 ft | 215 kts | 70° |
| 2026-05-08 08:37 | 50.05079 | 8.61281 | 2248 ft | 205 kts | 70° |
| 2026-05-08 08:38 | 50.05526 | 8.63235 | 2934 ft | 206 kts | 71° |
| 2026-05-08 08:38 | 50.06012 | 8.65403 | 3303 ft | 222 kts | 71° |
| 2026-05-08 08:38 | 50.06528 | 8.67720 | 3844 ft | 230 kts | 71° |
| 2026-05-08 08:38 | 50.07187 | 8.69987 | 4458 ft | 234 kts | 56° |
| 2026-05-08 08:39 | 50.08352 | 8.71707 | 5028 ft | 238 kts | 32° |
| 2026-05-08 08:39 | 50.09830 | 8.72820 | 5637 ft | 241 kts | 24° |
| 2026-05-08 08:39 | 50.11359 | 8.73841 | 6270 ft | 242 kts | 24° |
| 2026-05-08 08:39 | 50.12928 | 8.74893 | 6842 ft | 246 kts | 24° |
| 2026-05-08 08:40 | 50.14484 | 8.75943 | 7431 ft | 249 kts | 24° |
| 2026-05-08 08:40 | 50.16085 | 8.77026 | 8021 ft | 251 kts | 23° |
| 2026-05-08 08:40 | 50.17677 | 8.78105 | 8576 ft | 254 kts | 23° |
| 2026-05-08 08:40 | 50.19288 | 8.79196 | 9120 ft | 257 kts | 23° |
| 2026-05-08 08:41 | 50.20930 | 8.80310 | 9670 ft | 260 kts | 22° |
| 2026-05-08 08:41 | 50.22615 | 8.81454 | 10182 ft | 265 kts | 22° |
| 2026-05-08 08:41 | 50.24337 | 8.82623 | 10526 ft | 281 kts | 22° |
| 2026-05-08 08:41 | 50.26180 | 8.83726 | 11060 ft | 288 kts | 15° |
| 2026-05-08 08:42 | 50.28162 | 8.84327 | 11699 ft | 291 kts | 4° |
| 2026-05-08 08:42 | 50.30164 | 8.84354 | 12342 ft | 293 kts | 353° |
| 2026-05-08 08:42 | 50.32204 | 8.83939 | 13005 ft | 295 kts | 351° |
| 2026-05-08 08:42 | 50.34241 | 8.83480 | 13664 ft | 298 kts | 351° |
| 2026-05-08 08:43 | 50.36269 | 8.83037 | 14306 ft | 300 kts | 351° |
| 2026-05-08 08:43 | 50.38352 | 8.82591 | 14950 ft | 303 kts | 351° |
| 2026-05-08 08:43 | 50.40428 | 8.82148 | 15572 ft | 305 kts | 351° |
| 2026-05-08 08:43 | 50.42542 | 8.81699 | 16191 ft | 308 kts | 350° |
| 2026-05-08 08:44 | 50.44642 | 8.81252 | 16788 ft | 310 kts | 350° |
| 2026-05-08 08:44 | 50.46804 | 8.80791 | 17388 ft | 313 kts | 350° |
| 2026-05-08 08:44 | 50.48963 | 8.80330 | 17971 ft | 315 kts | 350° |
| 2026-05-08 08:44 | 50.51120 | 8.79870 | 18542 ft | 318 kts | 350° |
| 2026-05-08 08:45 | 50.53298 | 8.79405 | 19103 ft | 320 kts | 350° |
| 2026-05-08 08:45 | 50.55516 | 8.78930 | 19639 ft | 324 kts | 350° |
| 2026-05-08 08:45 | 50.57749 | 8.78304 | 20173 ft | 325 kts | 343° |
| 2026-05-08 08:45 | 50.59885 | 8.77359 | 20643 ft | 329 kts | 342° |
| 2026-05-08 08:46 | 50.62096 | 8.76345 | 20805 ft | 344 kts | 342° |
| 2026-05-08 08:46 | 50.64435 | 8.75273 | 20925 ft | 359 kts | 342° |
| 2026-05-08 08:46 | 50.66862 | 8.74165 | 21059 ft | 374 kts | 342° |
| 2026-05-08 08:46 | 50.69437 | 8.72990 | 21197 ft | 389 kts | 342° |
| 2026-05-08 08:47 | 50.72058 | 8.71793 | 21333 ft | 403 kts | 342° |
| 2026-05-08 08:47 | 50.74803 | 8.70678 | 21440 ft | 419 kts | 348° |
| 2026-05-08 08:47 | 50.77740 | 8.70187 | 21648 ft | 433 kts | 357° |
| 2026-05-08 08:47 | 50.80766 | 8.70486 | 22137 ft | 439 kts | 7° |
| 2026-05-08 08:48 | 50.83743 | 8.71588 | 22703 ft | 443 kts | 17° |
| 2026-05-08 08:48 | 50.86602 | 8.73481 | 23208 ft | 449 kts | 27° |
| 2026-05-08 08:48 | 50.89214 | 8.76103 | 23701 ft | 454 kts | 37° |
| 2026-05-08 08:48 | 50.91561 | 8.79466 | 24182 ft | 458 kts | 47° |
| 2026-05-08 08:49 | 50.93510 | 8.83398 | 24659 ft | 463 kts | 56° |
| 2026-05-08 08:49 | 50.95061 | 8.87861 | 25147 ft | 466 kts | 64° |
| 2026-05-08 08:49 | 50.96454 | 8.92449 | 25630 ft | 469 kts | 63° |
| 2026-05-08 08:49 | 50.98023 | 8.97036 | 26103 ft | 472 kts | 60° |
| 2026-05-08 08:50 | 50.99689 | 9.01474 | 26552 ft | 475 kts | 58° |
| 2026-05-08 08:50 | 51.01469 | 9.05915 | 26981 ft | 478 kts | 56° |
| 2026-05-08 08:50 | 51.03312 | 9.10286 | 27384 ft | 481 kts | 55° |
| 2026-05-08 08:50 | 51.05195 | 9.14616 | 27890 ft | 482 kts | 54° |
| 2026-05-08 08:51 | 51.07135 | 9.18936 | 28493 ft | 480 kts | 51° |
| 2026-05-08 08:51 | 51.09351 | 9.22846 | 29098 ft | 476 kts | 42° |
| 2026-05-08 08:51 | 51.11870 | 9.26110 | 29639 ft | 473 kts | 33° |
| 2026-05-08 08:51 | 51.14649 | 9.28690 | 30117 ft | 471 kts | 24° |
| 2026-05-08 08:52 | 51.17638 | 9.30550 | 30571 ft | 468 kts | 14° |
| 2026-05-08 08:52 | 51.20765 | 9.31745 | 31002 ft | 467 kts | 9° |
| 2026-05-08 08:52 | 51.23922 | 9.32782 | 31120 ft | 469 kts | 9° |
| 2026-05-08 08:52 | 51.27099 | 9.33831 | 31125 ft | 467 kts | 10° |
| 2026-05-08 08:53 | 51.33377 | 9.35946 | 31136 ft | 466 kts | 10° |
| 2026-05-08 08:53 | 51.39669 | 9.38102 | 31139 ft | 465 kts | 10° |
| 2026-05-08 08:54 | 51.45874 | 9.40251 | 31143 ft | 465 kts | 10° |
| 2026-05-08 08:54 | 51.52157 | 9.42441 | 31143 ft | 465 kts | 10° |
| 2026-05-08 08:55 | 51.58384 | 9.44623 | 31140 ft | 464 kts | 10° |
| 2026-05-08 08:55 | 51.64646 | 9.46827 | 31139 ft | 465 kts | 10° |
| 2026-05-08 08:56 | 51.70919 | 9.49041 | 31134 ft | 464 kts | 10° |
| 2026-05-08 08:56 | 51.77159 | 9.51251 | 31137 ft | 463 kts | 10° |
| 2026-05-08 08:57 | 51.83466 | 9.53337 | 31138 ft | 462 kts | 4° |
| 2026-05-08 08:57 | 51.89804 | 9.54251 | 31143 ft | 461 kts | 2° |
| 2026-05-08 08:58 | 51.96137 | 9.55094 | 31147 ft | 461 kts | 2° |
| 2026-05-08 08:58 | 52.02492 | 9.55947 | 31149 ft | 460 kts | 2° |
| 2026-05-08 08:59 | 52.08846 | 9.56805 | 31153 ft | 460 kts | 2° |
| 2026-05-08 08:59 | 52.15181 | 9.57664 | 31147 ft | 462 kts | 2° |
| 2026-05-08 09:00 | 52.21529 | 9.58529 | 31151 ft | 461 kts | 2° |
| 2026-05-08 09:00 | 52.27906 | 9.59401 | 31163 ft | 459 kts | 2° |
| 2026-05-08 09:01 | 52.34202 | 9.60264 | 31165 ft | 459 kts | 2° |
| 2026-05-08 09:01 | 52.40517 | 9.61132 | 31170 ft | 459 kts | 2° |
| 2026-05-08 09:02 | 52.46853 | 9.62006 | 31175 ft | 460 kts | 2° |
| 2026-05-08 09:02 | 52.53238 | 9.62889 | 31177 ft | 460 kts | 2° |
| 2026-05-08 09:03 | 52.59562 | 9.63766 | 31176 ft | 461 kts | 2° |
| 2026-05-08 09:03 | 52.65910 | 9.64649 | 31178 ft | 461 kts | 2° |
| 2026-05-08 09:04 | 52.72245 | 9.65533 | 31173 ft | 461 kts | 2° |
| 2026-05-08 09:04 | 52.78629 | 9.66426 | 31173 ft | 461 kts | 2° |
| 2026-05-08 09:05 | 52.85001 | 9.67321 | 31175 ft | 461 kts | 2° |
| 2026-05-08 09:05 | 52.91354 | 9.68215 | 31174 ft | 461 kts | 2° |
| 2026-05-08 09:06 | 52.97699 | 9.69111 | 31177 ft | 459 kts | 2° |
| 2026-05-08 09:06 | 53.04040 | 9.70009 | 31179 ft | 458 kts | 2° |
| 2026-05-08 09:07 | 53.10291 | 9.70896 | 31180 ft | 459 kts | 2° |
| 2026-05-08 09:07 | 53.16660 | 9.71803 | 31183 ft | 460 kts | 3° |
| 2026-05-08 09:08 | 53.22951 | 9.72702 | 31185 ft | 460 kts | 3° |
| 2026-05-08 09:08 | 53.29316 | 9.73614 | 31190 ft | 461 kts | 3° |
| 2026-05-08 09:09 | 53.35642 | 9.74523 | 31197 ft | 461 kts | 3° |
| 2026-05-08 09:09 | 53.41994 | 9.75438 | 31200 ft | 461 kts | 3° |
| 2026-05-08 09:10 | 53.48294 | 9.76349 | 31202 ft | 461 kts | 3° |
| 2026-05-08 09:10 | 53.54659 | 9.77272 | 31205 ft | 461 kts | 3° |
| 2026-05-08 09:11 | 53.60944 | 9.78186 | 31209 ft | 461 kts | 3° |
| 2026-05-08 09:11 | 53.67328 | 9.79116 | 31208 ft | 473 kts | 3° |
| 2026-05-08 09:12 | 53.73939 | 9.80082 | 31209 ft | 488 kts | 4° |
| 2026-05-08 09:12 | 53.80768 | 9.81084 | 31218 ft | 502 kts | 4° |
| 2026-05-08 09:13 | 53.87797 | 9.82119 | 31211 ft | 513 kts | 4° |
| 2026-05-08 09:13 | 53.94837 | 9.83160 | 31213 ft | 514 kts | 4° |
| 2026-05-08 09:14 | 54.01971 | 9.84219 | 31211 ft | 514 kts | 4° |
| 2026-05-08 09:14 | 54.09070 | 9.85276 | 31218 ft | 515 kts | 4° |
| 2026-05-08 09:15 | 54.16195 | 9.86340 | 31220 ft | 516 kts | 4° |
| 2026-05-08 09:15 | 54.23313 | 9.87406 | 31222 ft | 517 kts | 4° |
| 2026-05-08 09:16 | 54.30438 | 9.88478 | 31222 ft | 518 kts | 4° |
| 2026-05-08 09:16 | 54.37642 | 9.89565 | 31224 ft | 518 kts | 4° |
| 2026-05-08 09:17 | 54.44785 | 9.90646 | 31228 ft | 518 kts | 4° |
| 2026-05-08 09:17 | 54.51952 | 9.91735 | 31228 ft | 518 kts | 5° |
| 2026-05-08 09:18 | 54.59057 | 9.92818 | 31233 ft | 518 kts | 5° |
| 2026-05-08 09:18 | 54.66166 | 9.93906 | 31234 ft | 518 kts | 5° |
| 2026-05-08 09:19 | 54.73266 | 9.94996 | 31233 ft | 518 kts | 5° |
| 2026-05-08 09:19 | 54.80352 | 9.96163 | 31237 ft | 517 kts | 8° |
| 2026-05-08 09:20 | 54.87399 | 9.98834 | 31237 ft | 518 kts | 13° |
| 2026-05-08 09:20 | 54.94339 | 10.01703 | 31241 ft | 517 kts | 13° |
| 2026-05-08 09:21 | 55.01259 | 10.04571 | 31242 ft | 517 kts | 13° |
| 2026-05-08 09:23 | 55.25616 | 10.14736 | 31220 ft | 517 kts | 14° |
| 2026-05-08 09:23 | 55.32604 | 10.17675 | 31219 ft | 519 kts | 14° |
| 2026-05-08 09:24 | 55.39607 | 10.20631 | 31224 ft | 519 kts | 14° |
| 2026-05-08 09:24 | 55.46617 | 10.23600 | 31227 ft | 520 kts | 14° |
| 2026-05-08 09:25 | 55.53633 | 10.26583 | 31232 ft | 521 kts | 14° |
| 2026-05-08 09:25 | 55.60640 | 10.29572 | 31229 ft | 520 kts | 14° |
| 2026-05-08 09:26 | 55.67608 | 10.32556 | 31231 ft | 519 kts | 14° |
| 2026-05-08 09:26 | 55.74607 | 10.35565 | 31236 ft | 518 kts | 14° |
| 2026-05-08 09:27 | 55.81564 | 10.38566 | 31247 ft | 517 kts | 15° |
| 2026-05-08 09:27 | 55.88504 | 10.41572 | 31248 ft | 517 kts | 15° |
| 2026-05-08 09:28 | 55.95481 | 10.44604 | 31250 ft | 517 kts | 15° |
| 2026-05-08 09:28 | 56.02426 | 10.47633 | 31252 ft | 516 kts | 15° |
| 2026-05-08 09:29 | 56.09383 | 10.50679 | 31248 ft | 517 kts | 15° |
| 2026-05-08 09:29 | 56.16322 | 10.53729 | 31248 ft | 516 kts | 15° |
| 2026-05-08 09:30 | 56.23313 | 10.56813 | 31250 ft | 517 kts | 15° |
| 2026-05-08 09:30 | 56.30231 | 10.59876 | 31256 ft | 518 kts | 15° |
| 2026-05-08 09:31 | 56.37118 | 10.62937 | 31254 ft | 518 kts | 15° |
| 2026-05-08 09:31 | 56.44039 | 10.66024 | 31253 ft | 518 kts | 16° |
| 2026-05-08 09:32 | 56.51004 | 10.69143 | 31252 ft | 518 kts | 16° |
| 2026-05-08 09:32 | 56.58001 | 10.72288 | 31255 ft | 518 kts | 16° |
| 2026-05-08 09:33 | 56.64974 | 10.75434 | 31257 ft | 519 kts | 16° |
| 2026-05-08 09:33 | 56.71959 | 10.78598 | 31257 ft | 519 kts | 16° |
| 2026-05-08 09:34 | 56.78854 | 10.81732 | 31260 ft | 519 kts | 16° |
| 2026-05-08 09:34 | 56.85802 | 10.84903 | 31256 ft | 520 kts | 16° |
| 2026-05-08 09:35 | 56.92841 | 10.88128 | 31260 ft | 521 kts | 16° |
| 2026-05-08 09:35 | 56.99818 | 10.91337 | 31257 ft | 521 kts | 16° |
| 2026-05-08 09:36 | 57.06842 | 10.94580 | 31263 ft | 521 kts | 16° |
| 2026-05-08 09:36 | 57.13748 | 10.97781 | 31259 ft | 521 kts | 15° |
| 2026-05-08 09:37 | 57.20308 | 11.00833 | 31259 ft | 521 kts | 15° |
| 2026-05-08 09:37 | 57.27228 | 11.04064 | 31259 ft | 521 kts | 15° |
| 2026-05-08 09:38 | 57.34248 | 11.07355 | 31260 ft | 522 kts | 15° |
| 2026-05-08 09:38 | 57.41443 | 11.09271 | 31263 ft | 524 kts | 5° |
| 2026-05-08 09:39 | 57.48703 | 11.10151 | 31260 ft | 526 kts | 5° |
| 2026-05-08 09:39 | 57.55985 | 11.11028 | 31257 ft | 525 kts | 4° |
| 2026-05-08 09:40 | 57.63248 | 11.11906 | 31180 ft | 527 kts | 5° |
| 2026-05-08 09:40 | 57.66842 | 11.12341 | 30707 ft | 523 kts | 4° |
| 2026-05-08 09:40 | 57.70459 | 11.12780 | 30179 ft | 513 kts | 4° |
| 2026-05-08 09:40 | 57.74003 | 11.13210 | 29650 ft | 505 kts | 4° |
| 2026-05-08 09:41 | 57.77420 | 11.13627 | 29132 ft | 499 kts | 4° |
| 2026-05-08 09:41 | 57.80882 | 11.14049 | 28599 ft | 492 kts | 4° |
| 2026-05-08 09:41 | 57.84280 | 11.14465 | 28069 ft | 486 kts | 4° |
| 2026-05-08 09:41 | 57.87577 | 11.14869 | 27554 ft | 483 kts | 4° |
| 2026-05-08 09:42 | 57.90918 | 11.15279 | 27026 ft | 482 kts | 4° |
| 2026-05-08 09:42 | 57.94285 | 11.15694 | 26489 ft | 480 kts | 4° |
| 2026-05-08 09:42 | 57.97599 | 11.16102 | 25963 ft | 475 kts | 4° |
| 2026-05-08 09:42 | 58.00851 | 11.16504 | 25450 ft | 471 kts | 4° |
| 2026-05-08 09:43 | 58.04061 | 11.16901 | 25250 ft | 464 kts | 4° |
| 2026-05-08 09:43 | 58.07321 | 11.17305 | 25245 ft | 468 kts | 4° |
| 2026-05-08 09:43 | 58.10574 | 11.17710 | 25245 ft | 469 kts | 4° |
| 2026-05-08 09:43 | 58.13816 | 11.18113 | 25239 ft | 469 kts | 4° |
| 2026-05-08 09:44 | 58.17033 | 11.18514 | 25239 ft | 469 kts | 4° |
| 2026-05-08 09:44 | 58.20280 | 11.18920 | 25241 ft | 469 kts | 4° |
| 2026-05-08 09:44 | 58.23508 | 11.19324 | 25241 ft | 469 kts | 4° |
| 2026-05-08 09:44 | 58.26797 | 11.19736 | 25240 ft | 477 kts | 4° |
| 2026-05-08 09:45 | 58.30152 | 11.20158 | 25242 ft | 482 kts | 4° |
| 2026-05-08 09:45 | 58.33500 | 11.20579 | 25241 ft | 483 kts | 4° |
| 2026-05-08 09:45 | 58.36809 | 11.20996 | 25245 ft | 483 kts | 4° |
| 2026-05-08 09:45 | 58.40173 | 11.21421 | 25248 ft | 483 kts | 4° |
| 2026-05-08 09:46 | 58.43541 | 11.21847 | 25248 ft | 483 kts | 4° |
| 2026-05-08 09:46 | 58.46854 | 11.22267 | 25251 ft | 484 kts | 4° |
| 2026-05-08 09:46 | 58.50224 | 11.22696 | 25249 ft | 483 kts | 4° |
| 2026-05-08 09:46 | 58.53551 | 11.23119 | 25244 ft | 483 kts | 4° |
| 2026-05-08 09:47 | 58.56885 | 11.23544 | 25250 ft | 483 kts | 4° |
| 2026-05-08 09:47 | 58.60238 | 11.23973 | 25249 ft | 484 kts | 4° |
| 2026-05-08 09:47 | 58.63581 | 11.24574 | 25252 ft | 483 kts | 7° |
| 2026-05-08 09:47 | 58.66875 | 11.25449 | 25252 ft | 483 kts | 8° |
| 2026-05-08 09:48 | 58.70229 | 11.26365 | 25255 ft | 483 kts | 8° |
| 2026-05-08 09:48 | 58.73537 | 11.27272 | 25258 ft | 484 kts | 8° |
| 2026-05-08 09:48 | 58.76836 | 11.28178 | 25250 ft | 473 kts | 8° |
| 2026-05-08 09:48 | 58.80042 | 11.29060 | 25248 ft | 456 kts | 8° |
| 2026-05-08 09:49 | 58.83092 | 11.29898 | 25246 ft | 439 kts | 7° |
| 2026-05-08 09:49 | 58.86063 | 11.30304 | 25254 ft | 422 kts | 1° |
| 2026-05-08 09:49 | 58.88962 | 11.30489 | 25251 ft | 416 kts | 1° |
| 2026-05-08 09:49 | 58.91845 | 11.30666 | 25250 ft | 417 kts | 1° |
| 2026-05-08 09:50 | 58.94760 | 11.30844 | 25213 ft | 418 kts | 1° |
| 2026-05-08 09:50 | 58.97676 | 11.31023 | 24748 ft | 421 kts | 1° |
| 2026-05-08 09:50 | 59.00570 | 11.31200 | 24224 ft | 419 kts | 1° |
| 2026-05-08 09:50 | 59.03474 | 11.31379 | 23712 ft | 417 kts | 1° |
| 2026-05-08 09:51 | 59.06368 | 11.31557 | 23200 ft | 415 kts | 1° |
| 2026-05-08 09:51 | 59.09221 | 11.31733 | 22702 ft | 413 kts | 1° |
| 2026-05-08 09:51 | 59.12086 | 11.31911 | 22184 ft | 411 kts | 1° |
| 2026-05-08 09:51 | 59.14914 | 11.32086 | 21664 ft | 409 kts | 1° |
| 2026-05-08 09:52 | 59.17748 | 11.32262 | 21140 ft | 406 kts | 1° |
| 2026-05-08 09:52 | 59.20561 | 11.32436 | 20618 ft | 404 kts | 1° |
| 2026-05-08 09:52 | 59.23344 | 11.32610 | 20115 ft | 402 kts | 1° |
| 2026-05-08 09:52 | 59.26152 | 11.32785 | 19605 ft | 399 kts | 1° |
| 2026-05-08 09:53 | 59.28912 | 11.32957 | 19089 ft | 397 kts | 1° |
| 2026-05-08 09:53 | 59.31657 | 11.33129 | 18552 ft | 395 kts | 1° |
| 2026-05-08 09:53 | 59.34382 | 11.33299 | 18050 ft | 393 kts | 1° |
| 2026-05-08 09:53 | 59.37097 | 11.33470 | 17542 ft | 390 kts | 1° |
| 2026-05-08 09:54 | 59.39784 | 11.33639 | 17042 ft | 388 kts | 1° |
| 2026-05-08 09:54 | 59.42469 | 11.33808 | 16547 ft | 386 kts | 1° |
| 2026-05-08 09:54 | 59.45159 | 11.33978 | 15942 ft | 379 kts | 1° |
| 2026-05-08 09:54 | 59.47727 | 11.34141 | 15441 ft | 366 kts | 0° |
| 2026-05-08 09:55 | 59.50222 | 11.34300 | 14940 ft | 356 kts | 0° |
| 2026-05-08 09:55 | 59.52670 | 11.34455 | 14526 ft | 357 kts | 0° |
| 2026-05-08 09:55 | 59.55166 | 11.34613 | 14022 ft | 357 kts | 0° |
| 2026-05-08 09:55 | 59.57627 | 11.34769 | 13518 ft | 357 kts | 0° |
| 2026-05-08 09:56 | 59.60105 | 11.34926 | 13022 ft | 357 kts | 0° |
| 2026-05-08 09:56 | 59.62553 | 11.35082 | 12519 ft | 357 kts | 0° |
| 2026-05-08 09:56 | 59.64987 | 11.35237 | 12253 ft | 349 kts | 0° |
| 2026-05-08 09:56 | 59.67360 | 11.35390 | 12162 ft | 344 kts | 0° |
| 2026-05-08 09:57 | 59.72127 | 11.35695 | 11571 ft | 340 kts | 0° |
| 2026-05-08 09:57 | 59.74491 | 11.35847 | 11263 ft | 338 kts | 0° |
| 2026-05-08 09:57 | 59.76829 | 11.35997 | 10963 ft | 337 kts | 0° |
| 2026-05-08 09:58 | 59.79158 | 11.36146 | 10664 ft | 336 kts | 0° |
| 2026-05-08 09:58 | 59.81512 | 11.36298 | 10355 ft | 334 kts | 0° |
| 2026-05-08 09:58 | 59.83831 | 11.36447 | 10048 ft | 333 kts | 0° |
| 2026-05-08 09:58 | 59.86160 | 11.36598 | 9749 ft | 333 kts | 0° |
| 2026-05-08 09:59 | 59.88446 | 11.36745 | 9177 ft | 335 kts | 0° |
| 2026-05-08 09:59 | 59.90763 | 11.36895 | 8544 ft | 329 kts | 0° |
| 2026-05-08 09:59 | 59.93021 | 11.37042 | 7920 ft | 324 kts | 0° |
| 2026-05-08 09:59 | 59.95265 | 11.37188 | 7291 ft | 320 kts | 0° |
| 2026-05-08 10:00 | 59.97485 | 11.37333 | 6661 ft | 316 kts | 0° |
| 2026-05-08 10:00 | 59.99665 | 11.37474 | 6106 ft | 321 kts | 0° |
| 2026-05-08 10:00 | 60.01934 | 11.37621 | 5463 ft | 328 kts | 0° |
| 2026-05-08 10:00 | 60.04193 | 11.37779 | 5041 ft | 326 kts | 2° |
| 2026-05-08 10:01 | 60.06401 | 11.38177 | 4992 ft | 312 kts | 5° |
| 2026-05-08 10:01 | 60.08495 | 11.38615 | 4980 ft | 298 kts | 5° |
| 2026-05-08 10:01 | 60.10530 | 11.39043 | 4781 ft | 292 kts | 5° |
| 2026-05-08 10:01 | 60.12511 | 11.39456 | 4476 ft | 282 kts | 5° |
| 2026-05-08 10:02 | 60.12766 | 11.39509 | 4442 ft | 281 kts | 5° |
| 2026-05-08 10:02 | 60.14357 | 11.39839 | 4230 ft | 277 kts | 5° |
| 2026-05-08 10:02 | 60.16264 | 11.40232 | 4032 ft | 278 kts | 5° |
| 2026-05-08 10:02 | 60.18145 | 11.40615 | 3987 ft | 274 kts | 5° |
| 2026-05-08 10:03 | 60.20070 | 11.40683 | 3986 ft | 274 kts | 356° |
| 2026-05-08 10:03 | 60.21961 | 11.40456 | 3982 ft | 274 kts | 355° |
| 2026-05-08 10:03 | 60.23870 | 11.40208 | 3982 ft | 274 kts | 355° |
| 2026-05-08 10:03 | 60.25760 | 11.39961 | 3984 ft | 273 kts | 355° |
| 2026-05-08 10:04 | 60.27631 | 11.39718 | 3983 ft | 262 kts | 355° |
| 2026-05-08 10:04 | 60.29406 | 11.39489 | 3979 ft | 250 kts | 355° |
| 2026-05-08 10:04 | 60.31110 | 11.39273 | 3984 ft | 243 kts | 355° |
| 2026-05-08 10:04 | 60.32803 | 11.39060 | 3985 ft | 243 kts | 355° |
| 2026-05-08 10:05 | 60.34462 | 11.38649 | 3978 ft | 242 kts | 342° |
| 2026-05-08 10:05 | 60.36112 | 11.37796 | 3981 ft | 243 kts | 345° |
| 2026-05-08 10:05 | 60.37734 | 11.37037 | 3979 ft | 242 kts | 345° |
| 2026-05-08 10:05 | 60.39379 | 11.36272 | 3982 ft | 242 kts | 344° |
| 2026-05-08 10:06 | 60.40888 | 11.34869 | 3970 ft | 239 kts | 315° |
| 2026-05-08 10:06 | 60.41813 | 11.32153 | 3967 ft | 235 kts | 283° |
| 2026-05-08 10:06 | 60.42148 | 11.28961 | 3976 ft | 231 kts | 275° |
| 2026-05-08 10:06 | 60.42399 | 11.25789 | 3975 ft | 228 kts | 275° |
| 2026-05-08 10:07 | 60.42413 | 11.22617 | 3963 ft | 222 kts | 250° |
| 2026-05-08 10:07 | 60.41642 | 11.20044 | 3964 ft | 216 kts | 220° |
| 2026-05-08 10:07 | 60.40388 | 11.18424 | 3958 ft | 209 kts | 199° |
| 2026-05-08 10:07 | 60.39025 | 11.18150 | 3956 ft | 194 kts | 171° |
| 2026-05-08 10:08 | 60.37726 | 11.18495 | 3967 ft | 187 kts | 187° |
| 2026-05-08 10:08 | 60.36470 | 11.17735 | 3734 ft | 188 kts | 199° |
| 2026-05-08 10:08 | 60.35646 | 11.17192 | 3573 ft | 184 kts | 194° |
| 2026-05-08 10:08 | 60.34047 | 11.16358 | 3261 ft | 173 kts | 195° |
| 2026-05-08 10:09 | 60.32877 | 11.15680 | 3023 ft | 174 kts | 195° |
| 2026-05-08 10:09 | 60.31728 | 11.15013 | 2793 ft | 173 kts | 195° |
| 2026-05-08 10:09 | 60.30575 | 11.14342 | 2559 ft | 173 kts | 195° |
| 2026-05-08 10:09 | 60.29417 | 11.13674 | 2327 ft | 172 kts | 195° |
| 2026-05-08 10:10 | 60.28276 | 11.13014 | 2093 ft | 171 kts | 195° |
| 2026-05-08 10:10 | 60.27158 | 11.12368 | 1863 ft | 171 kts | 195° |
| 2026-05-08 10:10 | 60.26023 | 11.11708 | 1624 ft | 171 kts | 194° |
| 2026-05-08 10:10 | 60.24868 | 11.11044 | 1391 ft | 171 kts | 193° |
| 2026-05-08 10:11 | 60.23735 | 11.10395 | 1158 ft | 168 kts | 196° |
| 2026-05-08 10:11 | 60.22632 | 11.09732 | 975 ft | 163 kts | 195° |
| 2026-05-08 10:11 | 60.21567 | 11.09133 | 744 ft | 155 kts | 194° |
| 2026-05-08 10:11 | 60.20594 | 11.08589 | 691 ft | 129 kts | 197° |
| 2026-05-08 10:12 | 60.19848 | 11.08155 | 691 ft | 94 kts | 196° |
| 2026-05-08 10:12 | 60.19340 | 11.07860 | 681 ft | 58 kts | 195° |
| 2026-05-08 10:12 | 60.19033 | 11.07692 | 679 ft | 42 kts | 197° |
| 2026-05-08 10:12 | 60.18720 | 11.07504 | 678 ft | 49 kts | 195° |
| 2026-05-08 10:13 | 60.18585 | 11.07599 | 676 ft | 0 kts | 117° |
| 2026-05-08 10:13 | 60.18583 | 11.07608 | 676 ft | 3 kts | 115° |
| 2026-05-08 10:13 | 60.18560 | 11.07737 | 675 ft | 15 kts | 111° |
| 2026-05-08 10:14 | 60.18589 | 11.07978 | 675 ft | 22 kts | 22° |
| 2026-05-08 10:14 | 60.18740 | 11.08077 | 678 ft | 22 kts | 17° |
| 2026-05-08 10:14 | 60.18889 | 11.08164 | 678 ft | 22 kts | 18° |
| 2026-05-08 10:14 | 60.18918 | 11.08181 | 678 ft | 0 kts | 14° |
| 2026-05-08 10:15 | 60.18926 | 11.08185 | 678 ft | 4 kts | 14° |
| 2026-05-08 10:15 | 60.18985 | 11.08217 | 678 ft | 13 kts | 15° |
| 2026-05-08 10:15 | 60.19122 | 11.08293 | 677 ft | 25 kts | 15° |
| 2026-05-08 10:15 | 60.19293 | 11.08392 | 679 ft | 25 kts | 15° |
| 2026-05-08 10:16 | 60.19456 | 11.08483 | 684 ft | 24 kts | 16° |
| 2026-05-08 10:16 | 60.19618 | 11.08576 | 687 ft | 23 kts | 14° |
| 2026-05-08 10:16 | 60.19764 | 11.08658 | 693 ft | 21 kts | 16° |
| 2026-05-08 10:16 | 60.19909 | 11.08744 | 694 ft | 21 kts | 16° |
| 2026-05-08 10:17 | 60.20058 | 11.08833 | 694 ft | 22 kts | 15° |
| 2026-05-08 10:17 | 60.20103 | 11.09084 | 693 ft | 22 kts | 103° |
| 2026-05-08 10:17 | 60.20058 | 11.09399 | 691 ft | 24 kts | 109° |